createdAt,value
2018-08-19T00:00:28.280Z,27.5
2018-08-19T00:01:18.415Z,27.4
2018-08-19T00:02:08.687Z,27.4
2018-08-19T00:02:58.472Z,27.4
2018-08-19T00:03:48.867Z,27.4
2018-08-19T00:04:38.892Z,27.4
2018-08-19T00:05:28.959Z,27.4
2018-08-19T00:06:19.063Z,27.4
2018-08-19T00:07:09.074Z,27.4
2018-08-19T00:07:58.904Z,27.4
2018-08-19T00:08:49.267Z,27.4
2018-08-19T00:09:38.995Z,27.4
2018-08-19T00:10:29.388Z,27.4
2018-08-19T00:11:19.116Z,27.4
2018-08-19T00:12:09.208Z,27.4
2018-08-19T00:12:59.521Z,27.4
2018-08-19T00:13:49.334Z,27.4
2018-08-19T00:14:39.389Z,27.4
2018-08-19T00:15:29.468Z,27.4
2018-08-19T00:16:19.571Z,27.4
2018-08-19T00:17:09.610Z,27.4
2018-08-19T00:17:59.941Z,27.4
2018-08-19T00:18:49.945Z,27.4
2018-08-19T00:37:41.536Z,27.4
2018-08-19T00:38:31.587Z,27.4
2018-08-19T00:39:21.375Z,27.4
2018-08-19T00:40:10.953Z,27.4
2018-08-19T00:41:01.229Z,27.4
2018-08-19T00:41:51.382Z,27.4
2018-08-19T00:42:41.967Z,27.4
2018-08-19T00:43:31.702Z,27.4
2018-08-19T00:44:21.744Z,27.4
2018-08-19T00:45:11.840Z,27.4
2018-08-19T00:46:02.225Z,27.4
2018-08-19T00:46:51.969Z,27.4
2018-08-19T00:47:42.116Z,27.4
2018-08-19T00:48:32.420Z,27.4
2018-08-19T00:49:22.151Z,27.4
2018-08-19T00:50:12.528Z,27.4
2018-08-19T00:51:02.112Z,27.4
2018-08-19T00:51:52.660Z,27.4
2018-08-19T00:52:42.801Z,27.4
2018-08-19T00:53:32.785Z,27.4
2018-08-19T00:54:22.264Z,27.4
2018-08-19T00:55:12.663Z,27.4
2018-08-19T00:56:02.977Z,27.4
2018-08-19T00:56:52.783Z,27.4
2018-08-19T00:57:43.103Z,27.4
2018-08-19T00:58:32.874Z,27.4
2018-08-19T00:59:22.667Z,27.4
2018-08-19T01:00:13.295Z,27.4
2018-08-19T01:01:03.335Z,27.3
2018-08-19T01:01:53.121Z,27.4
2018-08-19T01:02:43.506Z,27.3
2018-08-19T01:03:33.256Z,27.3
2018-08-19T01:04:23.583Z,27.3
2018-08-19T01:05:13.640Z,27.3
2018-08-19T01:06:03.723Z,27.3
2018-08-19T01:06:53.779Z,27.3
2018-08-19T01:07:43.563Z,27.3
2018-08-19T01:08:33.437Z,27.3
2018-08-19T01:09:23.718Z,27.3
2018-08-19T01:10:14.081Z,27.3
2018-08-19T01:11:03.612Z,27.3
2018-08-19T01:11:53.430Z,27.3
2018-08-19T01:12:43.475Z,27.3
2018-08-19T01:13:34.283Z,27.3
2018-08-19T01:14:24.083Z,27.3
2018-08-19T01:15:14.425Z,27.3
2018-08-19T01:16:04.487Z,27.3
2018-08-19T01:16:54.535Z,27.3
2018-08-19T01:17:44.624Z,27.3
2018-08-19T01:18:34.685Z,27.3
2018-08-19T01:19:24.827Z,27.3
2018-08-19T01:20:14.802Z,27.3
2018-08-19T01:21:04.675Z,27.3
2018-08-19T01:21:54.481Z,27.3
2018-08-19T01:22:45.041Z,27.3
2018-08-19T01:23:34.828Z,27.3
2018-08-19T01:24:24.906Z,27.3
2018-08-19T01:25:14.980Z,27.3
2018-08-19T01:26:05.028Z,27.3
2018-08-19T01:26:55.108Z,27.3
2018-08-19T01:27:45.427Z,27.3
2018-08-19T01:28:34.951Z,27.3
2018-08-19T01:29:25.029Z,27.3
2018-08-19T01:30:15.672Z,27.3
2018-08-19T01:31:05.194Z,27.3
2018-08-19T01:31:55.750Z,27.3
2018-08-19T01:32:45.529Z,27.2
2018-08-19T01:33:35.997Z,27.3
2018-08-19T01:34:25.959Z,27.2
2018-08-19T01:35:16.040Z,27.3
2018-08-19T01:36:05.804Z,27.2
2018-08-19T01:36:56.139Z,27.2
2018-08-19T01:37:45.932Z,27.3
2018-08-19T01:38:34.895Z,27.2
2018-08-19T01:39:26.094Z,27.3
2018-08-19T01:40:16.120Z,27.2
2018-08-19T01:41:05.607Z,27.2
2018-08-19T01:41:56.240Z,27.2
2018-08-19T01:42:46.051Z,27.2
2018-08-19T01:43:36.375Z,27.2
2018-08-19T01:44:26.447Z,27.2
2018-08-19T01:45:16.766Z,27.2
2018-08-19T01:46:06.864Z,27.2
2018-08-19T01:46:56.355Z,27.2
2018-08-19T01:47:46.427Z,27.2
2018-08-19T01:48:37.043Z,27.2
2018-08-19T01:49:26.531Z,27.2
2018-08-19T01:50:17.177Z,27.2
2018-08-19T01:51:06.972Z,27.2
2018-08-19T01:51:57.036Z,27.2
2018-08-19T01:52:47.396Z,27.2
2018-08-19T01:53:37.140Z,27.1
2018-08-19T01:54:27.516Z,27.2
2018-08-19T01:55:17.533Z,27.2
2018-08-19T01:56:07.376Z,27.1
2018-08-19T01:56:57.665Z,27.2
2018-08-19T01:57:47.217Z,27.2
2018-08-19T01:58:37.836Z,27.1
2018-08-19T01:59:27.354Z,27.1
2018-08-19T02:00:17.947Z,27.1
2018-08-19T02:01:08.038Z,27.1
2018-08-19T02:01:58.092Z,27.1
2018-08-19T02:02:48.171Z,27.1
2018-08-19T02:03:37.391Z,27.1
2018-08-19T02:04:28.004Z,27.1
2018-08-19T02:05:18.374Z,27.1
2018-08-19T02:06:07.888Z,27.1
2018-08-19T02:06:58.518Z,27.1
2018-08-19T02:07:48.275Z,27.1
2018-08-19T02:08:38.326Z,27.1
2018-08-19T02:09:28.134Z,27.1
2018-08-19T02:10:18.461Z,27.1
2018-08-19T02:11:08.563Z,27.1
2018-08-19T02:11:58.909Z,27.1
2018-08-19T02:12:48.975Z,27.1
2018-08-19T02:13:38.718Z,27.1
2018-08-19T02:14:29.086Z,27.1
2018-08-19T02:15:19.126Z,27.1
2018-08-19T02:16:08.912Z,27.1
2018-08-19T02:16:58.705Z,27.1
2018-08-19T02:17:48.758Z,27.1
2018-08-19T02:18:39.415Z,27.1
2018-08-19T02:19:29.170Z,27.1
2018-08-19T02:20:19.487Z,27.1
2018-08-19T02:21:09.578Z,27.1
2018-08-19T02:21:59.640Z,27.1
2018-08-19T02:22:48.848Z,27.1
2018-08-19T02:23:39.748Z,27.1
2018-08-19T02:24:29.553Z,27.1
2018-08-19T02:25:19.349Z,27.1
2018-08-19T02:26:09.688Z,27.1
2018-08-19T02:26:59.500Z,27.1
2018-08-19T02:27:49.529Z,27.1
2018-08-19T02:28:39.892Z,27.1
2018-08-19T02:29:29.973Z,27.1
2018-08-19T02:30:20.331Z,27.1
2018-08-19T02:31:10.352Z,27.1
2018-08-19T02:31:59.869Z,27.1
2018-08-19T02:32:50.496Z,27.1
2018-08-19T02:33:39.729Z,27.1
2018-08-19T02:34:30.643Z,27.1
2018-08-19T02:35:20.428Z,27.1
2018-08-19T02:36:10.273Z,27.1
2018-08-19T02:37:00.830Z,27
2018-08-19T02:37:50.874Z,27.1
2018-08-19T02:38:40.946Z,27
2018-08-19T02:39:31.031Z,27.1
2018-08-19T02:40:20.551Z,27
2018-08-19T02:41:11.182Z,27
2018-08-19T02:42:00.956Z,27
2018-08-19T02:42:51.318Z,27.1
2018-08-19T02:43:41.384Z,27
2018-08-19T02:44:31.168Z,27
2018-08-19T02:45:21.549Z,27
2018-08-19T02:46:11.561Z,27
2018-08-19T02:47:01.634Z,27
2018-08-19T02:47:51.118Z,27
2018-08-19T02:48:41.210Z,27
2018-08-19T02:49:31.535Z,27
2018-08-19T02:50:21.876Z,27
2018-08-19T02:51:11.637Z,27
2018-08-19T02:52:01.956Z,27
2018-08-19T02:52:52.027Z,27
2018-08-19T02:53:41.794Z,27
2018-08-19T02:54:32.194Z,27
2018-08-19T02:55:22.069Z,27
2018-08-19T02:56:11.998Z,26.9
2018-08-19T02:57:01.805Z,27
2018-08-19T02:57:52.146Z,27
2018-08-19T02:58:41.949Z,26.9
2018-08-19T02:59:32.088Z,27
2018-08-19T03:00:22.309Z,27
2018-08-19T03:01:12.687Z,27
2018-08-19T03:02:01.911Z,27
2018-08-19T03:02:52.791Z,27
2018-08-19T03:03:42.625Z,26.9
2018-08-19T03:04:32.943Z,27
2018-08-19T03:05:23.013Z,26.9
2018-08-19T03:06:13.105Z,27
2018-08-19T03:07:02.824Z,27
2018-08-19T03:07:53.181Z,27
2018-08-19T03:08:42.985Z,27
2018-08-19T03:09:33.348Z,26.9
2018-08-19T03:10:23.180Z,26.9
2018-08-19T03:11:13.462Z,26.9
2018-08-19T03:12:03.302Z,26.9
2018-08-19T03:12:53.350Z,26.9
2018-08-19T03:13:43.679Z,26.9
2018-08-19T03:14:33.738Z,26.9
2018-08-19T03:15:23.840Z,26.9
2018-08-19T03:16:13.628Z,26.9
2018-08-19T03:17:03.365Z,26.9
2018-08-19T03:17:54.007Z,26.9
2018-08-19T03:18:43.770Z,26.9
2018-08-19T03:19:33.579Z,26.9
2018-08-19T03:20:24.210Z,26.9
2018-08-19T03:21:14.259Z,26.9
2018-08-19T03:22:04.313Z,26.9
2018-08-19T03:22:54.098Z,26.9
2018-08-19T03:23:44.444Z,26.9
2018-08-19T03:24:34.533Z,26.9
2018-08-19T03:25:24.614Z,26.9
2018-08-19T03:26:14.364Z,26.9
2018-08-19T03:27:04.707Z,26.9
2018-08-19T03:27:53.975Z,26.9
2018-08-19T03:28:44.256Z,26.9
2018-08-19T03:29:34.902Z,26.9
2018-08-19T03:30:25.047Z,26.9
2018-08-19T03:31:14.793Z,26.9
2018-08-19T03:32:05.107Z,26.9
2018-08-19T03:32:55.165Z,26.9
2018-08-19T03:33:45.232Z,26.9
2018-08-19T03:34:34.727Z,26.9
2018-08-19T03:35:24.765Z,26.9
2018-08-19T03:36:15.475Z,26.9
2018-08-19T03:37:05.221Z,26.9
2018-08-19T03:37:55.455Z,26.9
2018-08-19T03:38:45.622Z,26.9
2018-08-19T03:39:35.372Z,26.9
2018-08-19T03:40:25.509Z,26.9
2018-08-19T03:41:15.517Z,26.9
2018-08-19T03:42:05.612Z,26.9
2018-08-19T03:42:55.664Z,26.9
2018-08-19T03:43:45.724Z,26.9
2018-08-19T03:44:36.032Z,26.9
2018-08-19T03:45:26.142Z,26.9
2018-08-19T03:46:16.202Z,26.9
2018-08-19T03:47:05.745Z,26.9
2018-08-19T03:47:55.761Z,26.9
2018-08-19T03:48:46.396Z,26.9
2018-08-19T03:49:36.521Z,26.9
2018-08-19T03:50:26.263Z,26.9
2018-08-19T03:51:16.593Z,26.9
2018-08-19T03:52:06.373Z,26.9
2018-08-19T03:52:56.207Z,26.9
2018-08-19T03:53:46.506Z,26.9
2018-08-19T03:54:36.564Z,26.9
2018-08-19T03:55:26.939Z,26.9
2018-08-19T03:56:16.485Z,26.9
2018-08-19T03:57:07.098Z,26.9
2018-08-19T03:57:56.813Z,26.9
2018-08-19T03:58:47.176Z,26.8
2018-08-19T03:59:36.957Z,26.8
2018-08-19T04:00:26.756Z,26.8
2018-08-19T04:01:17.074Z,26.8
2018-08-19T04:02:07.440Z,26.9
2018-08-19T04:02:57.210Z,26.8
2018-08-19T04:03:47.576Z,26.8
2018-08-19T04:04:36.470Z,26.8
2018-08-19T04:05:27.408Z,26.8
2018-08-19T04:06:17.519Z,26.8
2018-08-19T04:07:07.788Z,26.8
2018-08-19T04:07:57.880Z,26.8
2018-08-19T04:08:47.941Z,26.8
2018-08-19T04:09:37.703Z,26.9
2018-08-19T04:10:27.244Z,26.8
2018-08-19T04:11:17.862Z,26.8
2018-08-19T04:12:07.628Z,26.8
2018-08-19T04:12:58.250Z,26.8
2018-08-19T04:13:48.030Z,26.8
2018-08-19T04:14:37.564Z,26.8
2018-08-19T04:15:28.155Z,26.8
2018-08-19T04:16:18.219Z,26.8
2018-08-19T04:17:08.325Z,26.8
2018-08-19T04:17:58.102Z,26.8
2018-08-19T04:18:48.186Z,26.8
2018-08-19T04:19:38.773Z,26.8
2018-08-19T04:20:28.586Z,26.8
2018-08-19T04:21:18.658Z,26.8
2018-08-19T04:22:09.079Z,26.8
2018-08-19T04:22:58.489Z,26.8
2018-08-19T04:23:48.904Z,26.8
2018-08-19T04:24:38.646Z,26.8
2018-08-19T04:25:29.236Z,26.8
2018-08-19T04:26:19.322Z,26.8
2018-08-19T04:27:08.824Z,26.8
2018-08-19T04:27:59.172Z,26.8
2018-08-19T04:28:49.497Z,26.8
2018-08-19T04:29:39.567Z,26.8
2018-08-19T04:30:29.643Z,26.8
2018-08-19T04:31:19.147Z,26.8
2018-08-19T04:32:09.932Z,26.8
2018-08-19T04:32:59.563Z,26.8
2018-08-19T04:33:49.621Z,26.8
2018-08-19T04:34:39.940Z,26.8
2018-08-19T04:35:30.016Z,26.8
2018-08-19T04:36:20.102Z,26.8
2018-08-19T04:37:10.185Z,26.8
2018-08-19T04:37:59.964Z,26.8
2018-08-19T04:38:50.281Z,26.8
2018-08-19T04:39:40.028Z,26.8
2018-08-19T04:40:30.451Z,26.8
2018-08-19T04:41:19.980Z,26.8
2018-08-19T04:42:09.884Z,26.8
2018-08-19T04:43:00.593Z,26.8
2018-08-19T04:43:50.424Z,26.8
2018-08-19T04:44:40.451Z,26.8
2018-08-19T04:45:30.503Z,26.8
2018-08-19T04:46:20.569Z,26.8
2018-08-19T04:47:10.685Z,26.8
2018-08-19T04:48:01.005Z,26.8
2018-08-19T04:48:50.763Z,26.8
2018-08-19T05:06:51.260Z,26.8
2018-08-19T05:07:40.894Z,26.8
2018-08-19T05:08:46.066Z,26.8
2018-08-19T05:09:21.385Z,26.8
2018-08-19T05:10:11.906Z,26.8
2018-08-19T05:11:01.615Z,26.8
2018-08-19T05:11:51.640Z,26.8
2018-08-19T05:12:41.465Z,26.8
2018-08-19T05:13:31.742Z,26.8
2018-08-19T05:14:36.248Z,26.8
2018-08-19T05:15:11.386Z,26.8
2018-08-19T05:16:01.538Z,26.8
2018-08-19T05:16:52.041Z,26.8
2018-08-19T05:17:42.757Z,26.8
2018-08-19T05:18:46.816Z,26.8
2018-08-19T05:19:36.885Z,26.8
2018-08-19T05:20:26.963Z,26.8
2018-08-19T05:21:02.408Z,26.8
2018-08-19T05:21:51.892Z,26.9
2018-08-19T05:22:43.593Z,26.8
2018-08-19T05:23:32.293Z,26.9
2018-08-19T05:24:22.634Z,26.9
2018-08-19T05:25:15.625Z,26.9
2018-08-19T05:26:02.483Z,26.9
2018-08-19T05:26:52.860Z,26.9
2018-08-19T05:27:42.679Z,26.9
2018-08-19T05:28:33.618Z,27
2018-08-19T05:29:22.448Z,27
2018-08-19T05:30:12.789Z,27
2018-08-19T05:31:03.147Z,27
2018-08-19T05:31:53.305Z,27
2018-08-19T05:32:43.279Z,27
2018-08-19T05:33:32.794Z,26.9
2018-08-19T05:34:23.364Z,26.9
2018-08-19T05:35:13.450Z,26.9
2018-08-19T05:36:03.527Z,26.9
2018-08-19T05:36:53.316Z,26.9
2018-08-19T05:37:43.094Z,26.9
2018-08-19T05:38:33.423Z,26.9
2018-08-19T05:39:23.489Z,26.9
2018-08-19T05:40:28.208Z,26.9
2018-08-19T05:41:03.914Z,26.9
2018-08-19T05:41:53.687Z,26.9
2018-08-19T05:42:44.023Z,26.9
2018-08-19T05:43:33.532Z,26.9
2018-08-19T05:44:24.161Z,26.9
2018-08-19T05:45:13.663Z,26.9
2018-08-19T05:46:04.004Z,26.9
2018-08-19T05:46:54.343Z,26.9
2018-08-19T05:47:44.405Z,26.9
2018-08-19T05:48:34.488Z,26.9
2018-08-19T05:49:24.263Z,26.9
2018-08-19T05:50:14.321Z,26.9
2018-08-19T05:51:03.853Z,26.9
2018-08-19T05:51:54.800Z,26.9
2018-08-19T05:52:44.256Z,26.9
2018-08-19T05:54:24.702Z,26.9
2018-08-19T05:55:14.752Z,26.9
2018-08-19T05:56:04.508Z,26.9
2018-08-19T05:56:55.160Z,26.9
2018-08-19T05:57:45.220Z,26.9
2018-08-19T05:58:35.274Z,26.9
2018-08-19T05:59:25.098Z,26.9
2018-08-19T06:00:15.132Z,26.9
2018-08-19T06:01:05.440Z,26.9
2018-08-19T06:01:55.294Z,26.9
2018-08-19T06:02:45.648Z,26.9
2018-08-19T06:03:35.382Z,26.9
2018-08-19T06:04:25.935Z,26.9
2018-08-19T06:05:15.853Z,26.9
2018-08-19T06:06:05.865Z,26.8
2018-08-19T06:06:55.918Z,26.9
2018-08-19T06:07:45.939Z,26.9
2018-08-19T06:08:35.766Z,26.8
2018-08-19T06:09:26.189Z,26.9
2018-08-19T06:10:16.141Z,26.8
2018-08-19T06:11:06.245Z,26.8
2018-08-19T06:11:56.261Z,26.8
2018-08-19T06:12:45.777Z,26.8
2018-08-19T06:13:36.426Z,26.8
2018-08-19T06:14:26.511Z,26.8
2018-08-19T06:15:16.308Z,26.8
2018-08-19T06:16:06.144Z,26.8
2018-08-19T06:16:56.672Z,26.8
2018-08-19T06:17:46.722Z,26.8
2018-08-19T06:18:36.575Z,26.8
2018-08-19T06:19:26.650Z,26.8
2018-08-19T06:20:16.954Z,26.8
2018-08-19T06:21:06.774Z,26.8
2018-08-19T06:21:57.457Z,26.8
2018-08-19T06:22:46.306Z,26.8
2018-08-19T06:23:36.616Z,26.8
2018-08-19T06:24:27.015Z,26.8
2018-08-19T06:25:31.743Z,26.8
2018-08-19T06:26:07.401Z,26.8
2018-08-19T06:26:57.194Z,26.8
2018-08-19T06:27:47.635Z,26.8
2018-08-19T06:28:37.070Z,26.8
2018-08-19T06:29:27.419Z,26.8
2018-08-19T06:30:17.465Z,26.8
2018-08-19T06:31:08.476Z,26.8
2018-08-19T06:31:57.608Z,26.8
2018-08-19T06:32:47.303Z,26.8
2018-08-19T06:33:37.429Z,26.8
2018-08-19T06:34:28.494Z,26.8
2018-08-19T06:36:08.186Z,26.8
2018-08-19T06:36:58.319Z,26.8
2018-08-19T06:37:48.341Z,26.8
2018-08-19T06:38:37.817Z,26.8
2018-08-19T06:39:28.166Z,26.8
2018-08-19T06:40:18.642Z,26.7
2018-08-19T06:41:08.616Z,26.8
2018-08-19T06:41:58.700Z,26.8
2018-08-19T06:42:47.928Z,26.5
2018-08-19T06:43:38.760Z,39.4
2018-08-19T06:44:28.829Z,53.6
2018-08-19T06:45:18.883Z,56.3
2018-08-19T06:46:08.925Z,55.9
2018-08-19T06:46:58.433Z,55.4
2018-08-19T06:47:48.773Z,54.9
2018-08-19T06:48:39.144Z,54.3
2018-08-19T06:49:28.940Z,53.9
2018-08-19T06:50:19.000Z,53.4
2018-08-19T06:51:09.293Z,52.9
2018-08-19T06:52:49.463Z,51.9
2018-08-19T06:53:39.544Z,51.3
2018-08-19T06:54:29.602Z,50.8
2018-08-19T06:55:19.639Z,50.4
2018-08-19T06:56:09.837Z,49.8
2018-08-19T06:56:59.482Z,49.4
2018-08-19T06:57:49.607Z,48.9
2018-08-19T06:58:39.921Z,48.4
2018-08-19T06:59:29.502Z,47.9
2018-08-19T07:00:19.613Z,47.5
2018-08-19T07:01:10.299Z,47.1
2018-08-19T07:01:59.911Z,46.6
2018-08-19T07:02:49.669Z,46.3
2018-08-19T07:03:40.973Z,45.8
2018-08-19T07:04:30.133Z,45.4
2018-08-19T07:05:20.464Z,46.4
2018-08-19T07:06:10.253Z,48.2
2018-08-19T07:07:00.336Z,57.5
2018-08-19T07:07:50.384Z,59.8
2018-08-19T07:08:40.442Z,58.4
2018-08-19T07:09:30.853Z,55.9
2018-08-19T07:10:19.825Z,54.9
2018-08-19T07:11:10.939Z,54.7
2018-08-19T07:12:00.416Z,54.4
2018-08-19T07:12:50.796Z,54.1
2018-08-19T07:13:40.060Z,53.8
2018-08-19T07:14:30.961Z,53.6
2018-08-19T07:15:20.970Z,53.3
2018-08-19T07:16:11.015Z,53
2018-08-19T07:17:00.505Z,52.7
2018-08-19T07:17:51.168Z,52.3
2018-08-19T07:19:31.560Z,51.1
2018-08-19T07:20:21.085Z,51.2
2018-08-19T07:21:11.738Z,59
2018-08-19T07:22:01.722Z,61.5
2018-08-19T07:22:51.508Z,61.4
2018-08-19T07:23:42.010Z,60
2018-08-19T07:24:31.912Z,57.5
2018-08-19T07:25:21.970Z,55.6
2018-08-19T07:26:11.794Z,55.3
2018-08-19T07:27:02.141Z,56.3
2018-08-19T07:27:52.196Z,57.6
2018-08-19T07:28:42.276Z,58.5
2018-08-19T07:29:32.392Z,58.6
2018-08-19T07:30:22.116Z,58.3
2018-08-19T07:31:11.893Z,57.7
2018-08-19T07:32:02.239Z,57.3
2018-08-19T07:32:52.582Z,57.3
2018-08-19T07:33:42.655Z,57.7
2018-08-19T07:34:32.461Z,58.1
2018-08-19T07:35:22.512Z,58.3
2018-08-19T07:36:12.283Z,58.3
2018-08-19T07:37:02.957Z,58.1
2018-08-19T07:37:53.023Z,58
2018-08-19T07:38:43.075Z,57.9
2018-08-19T07:39:33.115Z,58.1
2018-08-19T07:40:23.200Z,58.3
2018-08-19T07:41:13.284Z,58.4
2018-08-19T07:42:53.122Z,58.7
2018-08-19T07:43:42.941Z,58.8
2018-08-19T07:44:33.537Z,58.9
2018-08-19T07:45:23.593Z,58.9
2018-08-19T07:46:13.652Z,59.1
2018-08-19T07:47:03.450Z,59.3
2018-08-19T07:47:53.357Z,59.4
2018-08-19T07:48:43.562Z,59.5
2018-08-19T07:49:33.339Z,59.6
2018-08-19T07:50:23.718Z,59.7
2018-08-19T07:51:14.152Z,59.8
2018-08-19T07:52:03.869Z,59.9
2018-08-19T07:52:54.209Z,60.1
2018-08-19T07:53:43.985Z,60.2
2018-08-19T07:54:33.810Z,60.3
2018-08-19T07:55:23.900Z,60.4
2018-08-19T07:56:14.505Z,60.6
2018-08-19T07:57:03.921Z,60.7
2018-08-19T07:57:54.254Z,60.8
2018-08-19T07:58:44.319Z,60.9
2018-08-19T07:59:33.817Z,61.1
2018-08-19T08:00:24.739Z,61.2
2018-08-19T08:01:14.602Z,61.3
2018-08-19T08:02:04.595Z,61.4
2018-08-19T08:02:55.013Z,61.6
2018-08-19T08:03:44.230Z,61.7
2018-08-19T08:04:34.581Z,61.8
2018-08-19T08:05:24.837Z,61.9
2018-08-19T08:06:15.197Z,62.1
2018-08-19T08:07:04.970Z,62.2
2018-08-19T08:07:54.728Z,62.3
2018-08-19T08:08:45.115Z,62.4
2018-08-19T08:09:35.164Z,62.6
2018-08-19T08:10:25.506Z,62.8
2018-08-19T08:11:15.598Z,62.8
2018-08-19T08:12:05.123Z,63
2018-08-19T08:12:55.724Z,63.1
2018-08-19T08:13:46.116Z,63.2
2018-08-19T08:14:35.832Z,63.3
2018-08-19T08:15:25.639Z,63.4
2018-08-19T08:16:15.988Z,63.5
2018-08-19T08:17:06.113Z,63.6
2018-08-19T08:17:55.606Z,63.6
2018-08-19T08:18:46.208Z,63.8
2018-08-19T08:19:36.267Z,63.9
2018-08-19T08:20:26.033Z,63.9
2018-08-19T08:21:17.546Z,64.1
2018-08-19T08:22:06.195Z,64.2
2018-08-19T08:22:56.304Z,64.3
2018-08-19T08:23:46.305Z,64.4
2018-08-19T08:24:36.461Z,64.6
2018-08-19T08:25:26.743Z,64.7
2018-08-19T08:26:16.771Z,64.8
2018-08-19T08:27:06.844Z,64.9
2018-08-19T08:27:56.945Z,65
2018-08-19T08:28:46.188Z,65.1
2018-08-19T08:29:36.290Z,65.2
2018-08-19T08:30:27.120Z,65.3
2018-08-19T08:31:17.166Z,65.3
2018-08-19T08:32:07.235Z,65.4
2018-08-19T08:32:57.014Z,65.5
2018-08-19T08:33:47.047Z,65.6
2018-08-19T08:34:37.428Z,65.7
2018-08-19T08:35:27.212Z,65.8
2018-08-19T08:36:17.055Z,65.9
2018-08-19T08:37:07.326Z,65.9
2018-08-19T08:37:57.394Z,66.1
2018-08-19T08:38:47.469Z,66.1
2018-08-19T08:39:37.509Z,66.3
2018-08-19T08:40:27.609Z,66.3
2018-08-19T08:41:17.657Z,66.4
2018-08-19T08:42:07.702Z,66.5
2018-08-19T08:42:57.824Z,66.6
2018-08-19T08:43:48.157Z,66.6
2018-08-19T08:44:38.500Z,66.6
2018-08-19T08:45:27.995Z,66.8
2018-08-19T08:46:18.054Z,66.8
2018-08-19T08:47:08.144Z,66.9
2018-08-19T08:47:59.427Z,67
2018-08-19T08:48:48.263Z,67.1
2018-08-19T08:49:38.325Z,67.2
2018-08-19T08:50:28.663Z,67.3
2018-08-19T08:51:18.477Z,67.4
2018-08-19T08:52:08.829Z,67.4
2018-08-19T08:52:58.619Z,67.6
2018-08-19T08:53:48.921Z,67.7
2018-08-19T08:54:38.765Z,67.8
2018-08-19T08:55:28.806Z,67.8
2018-08-19T08:56:19.392Z,67.9
2018-08-19T08:57:08.911Z,68
2018-08-19T08:57:58.988Z,68.1
2018-08-19T08:58:49.319Z,68.2
2018-08-19T08:59:39.118Z,68.3
2018-08-19T09:00:29.485Z,68.4
2018-08-19T09:01:18.675Z,68.5
2018-08-19T09:02:09.314Z,68.6
2018-08-19T09:02:59.681Z,68.6
2018-08-19T09:03:49.713Z,68.7
2018-08-19T09:04:39.793Z,68.8
2018-08-19T09:21:10.669Z,69.7
2018-08-19T09:22:01.259Z,69.8
2018-08-19T09:22:52.131Z,69.9
2018-08-19T09:23:41.383Z,70
2018-08-19T09:24:31.734Z,70.1
2018-08-19T09:25:21.521Z,70.1
2018-08-19T09:26:11.890Z,70.2
2018-08-19T09:27:01.966Z,70.2
2018-08-19T09:27:51.733Z,70.2
2018-08-19T09:28:42.045Z,70.2
2018-08-19T09:29:32.124Z,70.2
2018-08-19T09:30:21.939Z,70.3
2018-08-19T09:31:12.269Z,70.3
2018-08-19T09:32:02.383Z,70.4
2018-08-19T09:32:52.405Z,70.4
2018-08-19T09:33:42.478Z,70.4
2018-08-19T09:34:31.993Z,70.4
2018-08-19T09:35:22.351Z,70.5
2018-08-19T09:36:12.118Z,70.5
2018-08-19T09:37:02.730Z,70.6
2018-08-19T09:37:52.230Z,70.6
2018-08-19T09:38:42.883Z,70.7
2018-08-19T09:39:32.678Z,70.7
2018-08-19T09:40:22.711Z,70.7
2018-08-19T09:41:13.055Z,70.8
2018-08-19T09:42:03.124Z,70.8
2018-08-19T09:42:52.618Z,70.8
2018-08-19T09:43:42.690Z,70.8
2018-08-19T09:44:33.049Z,70.8
2018-08-19T09:45:23.095Z,70.8
2018-08-19T09:46:13.451Z,70.8
2018-08-19T09:47:02.980Z,70.9
2018-08-19T09:47:55.670Z,70.9
2018-08-19T09:48:43.074Z,70.9
2018-08-19T09:49:33.740Z,71.1
2018-08-19T09:50:23.492Z,71.1
2018-08-19T09:51:13.263Z,71.2
2018-08-19T09:52:03.038Z,71.2
2018-08-19T09:52:53.416Z,71.3
2018-08-19T09:53:44.019Z,71.3
2018-08-19T09:54:34.147Z,71.4
2018-08-19T09:55:23.312Z,71.4
2018-08-19T09:56:13.944Z,71.4
2018-08-19T09:57:04.028Z,71.5
2018-08-19T09:57:54.371Z,71.6
2018-08-19T09:58:43.614Z,71.6
2018-08-19T09:59:34.521Z,71.6
2018-08-19T10:00:24.536Z,71.6
2018-08-19T10:01:14.610Z,71.6
2018-08-19T10:02:04.692Z,71.6
2018-08-19T10:02:54.734Z,71.7
2018-08-19T10:03:44.800Z,71.7
2018-08-19T10:04:34.866Z,71.8
2018-08-19T10:05:24.649Z,71.8
2018-08-19T10:06:14.770Z,71.8
2018-08-19T10:07:04.825Z,71.8
2018-08-19T10:07:55.636Z,71.9
2018-08-19T10:08:44.962Z,71.9
2018-08-19T10:09:35.030Z,71.9
2018-08-19T10:10:25.077Z,72
2018-08-19T10:11:15.440Z,72.1
2018-08-19T10:12:05.041Z,72.1
2018-08-19T10:12:55.327Z,72.1
2018-08-19T10:13:46.603Z,72.2
2018-08-19T10:14:35.140Z,72.3
2018-08-19T10:15:25.789Z,72.3
2018-08-19T10:16:15.526Z,72.3
2018-08-19T10:17:05.615Z,72.4
2018-08-19T10:17:55.652Z,72.5
2018-08-19T10:18:45.735Z,72.4
2018-08-19T10:19:35.517Z,72.3
2018-08-19T10:20:25.848Z,72.3
2018-08-19T10:21:16.183Z,72.3
2018-08-19T10:22:06.265Z,72.4
2018-08-19T10:22:56.320Z,72.4
2018-08-19T10:23:45.811Z,72.5
2018-08-19T10:24:36.463Z,72.4
2018-08-19T10:25:26.518Z,72.3
2018-08-19T10:26:16.291Z,72.3
2018-08-19T10:27:06.065Z,72.2
2018-08-19T10:27:55.860Z,72.2
2018-08-19T10:28:46.746Z,72.2
2018-08-19T10:29:36.821Z,72.3
2018-08-19T10:30:26.600Z,72.4
2018-08-19T10:31:16.598Z,72.4
2018-08-19T10:32:06.467Z,72.4
2018-08-19T10:32:57.072Z,72.4
2018-08-19T10:33:47.149Z,72.4
2018-08-19T10:34:37.236Z,72.5
2018-08-19T10:35:26.974Z,72.5
2018-08-19T10:36:17.347Z,72.6
2018-08-19T10:37:07.409Z,72.7
2018-08-19T10:37:57.484Z,72.8
2018-08-19T10:38:47.567Z,72.9
2018-08-19T10:39:37.351Z,72.9
2018-08-19T10:40:27.126Z,72.9
2018-08-19T10:41:17.757Z,72.9
2018-08-19T10:42:07.832Z,72.9
2018-08-19T10:42:57.634Z,72.9
2018-08-19T10:43:47.175Z,72.9
2018-08-19T10:44:37.739Z,72.9
2018-08-19T10:45:28.099Z,72.9
2018-08-19T10:46:18.672Z,73.1
2018-08-19T10:47:07.949Z,73.3
2018-08-19T10:47:58.014Z,73.3
2018-08-19T10:48:48.361Z,73.3
2018-08-19T10:49:38.439Z,73.3
2018-08-19T10:50:28.529Z,73.4
2018-08-19T10:51:18.548Z,73.4
2018-08-19T10:52:08.618Z,73.4
2018-08-19T10:52:58.683Z,73.4
2018-08-19T10:53:48.761Z,73.5
2018-08-19T10:54:38.804Z,73.6
2018-08-19T10:55:28.881Z,73.6
2018-08-19T10:56:18.976Z,73.6
2018-08-19T10:57:08.737Z,73.5
2018-08-19T10:57:59.124Z,73.5
2018-08-19T10:58:49.165Z,73.5
2018-08-19T10:59:39.171Z,73.4
2018-08-19T11:00:28.700Z,73.4
2018-08-19T11:01:18.748Z,73.4
2018-08-19T11:02:09.366Z,73.4
2018-08-19T11:02:58.888Z,73.4
2018-08-19T11:03:49.515Z,73.3
2018-08-19T11:04:39.008Z,73.4
2018-08-19T11:05:29.365Z,73.4
2018-08-19T11:06:19.697Z,73.5
2018-08-19T11:07:09.795Z,73.5
2018-08-19T11:07:59.850Z,73.6
2018-08-19T11:08:49.880Z,73.6
2018-08-19T11:09:40.010Z,73.6
2018-08-19T11:10:30.029Z,73.6
2018-08-19T11:11:20.094Z,73.6
2018-08-19T11:12:09.591Z,73.7
2018-08-19T11:12:59.968Z,73.7
2018-08-19T11:13:50.013Z,73.8
2018-08-19T11:14:40.119Z,73.9
2018-08-19T11:15:29.930Z,73.9
2018-08-19T11:16:20.474Z,74
2018-08-19T11:17:10.604Z,74
2018-08-19T11:18:00.653Z,74.1
2018-08-19T11:18:50.712Z,74.1
2018-08-19T11:19:40.503Z,73.9
2018-08-19T11:20:30.868Z,73.9
2018-08-19T11:21:20.994Z,73.9
2018-08-19T11:22:10.407Z,73.8
2018-08-19T11:23:00.753Z,73.9
2018-08-19T11:23:50.857Z,74.1
2018-08-19T11:24:41.169Z,74
2018-08-19T11:25:31.274Z,73.2
2018-08-19T11:26:21.309Z,71.6
2018-08-19T11:27:11.372Z,70
2018-08-19T11:28:01.419Z,69.3
2018-08-19T11:28:51.234Z,69.2
2018-08-19T11:29:41.009Z,68.8
2018-08-19T11:30:31.330Z,68.1
2018-08-19T11:31:21.739Z,67.6
2018-08-19T11:32:11.500Z,68.1
2018-08-19T11:33:01.824Z,69.1
2018-08-19T11:33:52.046Z,69.9
2018-08-19T11:34:41.659Z,70.1
2018-08-19T11:35:31.736Z,70.1
2018-08-19T11:36:22.039Z,70.1
2018-08-19T11:37:12.111Z,69.2
2018-08-19T11:38:02.191Z,67.9
2018-08-19T11:38:52.270Z,67.4
2018-08-19T11:39:42.041Z,67.7
2018-08-19T11:40:32.122Z,68.5
2018-08-19T11:41:21.863Z,68.8
2018-08-19T11:42:12.536Z,68.9
2018-08-19T11:43:02.563Z,69.3
2018-08-19T11:43:52.670Z,69.5
2018-08-19T11:44:42.728Z,68.8
2018-08-19T11:45:32.765Z,67.4
2018-08-19T11:46:22.847Z,66.3
2018-08-19T11:47:12.908Z,65.3
2018-08-19T11:48:02.964Z,64.4
2018-08-19T11:48:53.812Z,63.8
2018-08-19T11:49:43.103Z,63.2
2018-08-19T11:50:33.166Z,62.8
2018-08-19T11:51:23.223Z,62.7
2018-08-19T11:52:13.313Z,62.4
2018-08-19T11:53:03.406Z,61.9
2018-08-19T11:53:53.480Z,61.5
2018-08-19T11:54:43.535Z,61.1
2018-08-19T11:55:33.610Z,60.5
2018-08-19T11:56:23.655Z,60.1
2018-08-19T11:57:13.460Z,59.5
2018-08-19T11:58:03.805Z,59
2018-08-19T11:58:53.856Z,58.5
2018-08-19T11:59:43.667Z,57.9
2018-08-19T12:00:33.996Z,57.4
2018-08-19T12:01:24.099Z,56.9
2018-08-19T12:02:14.477Z,56.4
2018-08-19T12:03:04.249Z,55.9
2018-08-19T12:03:54.031Z,55.3
2018-08-19T12:04:44.343Z,54.8